Veuillez saisir l'adresse e-mail associée à votre compte d'utilisateur. Un code de vérification vous sera adressé. Lorsque vous le recevrez, vous pourrez choisir un nouveau mot de passe

METAR TAF

[Source: ADDS]
METAR
LFCR 040800Z AUTO 20004KT 170V230 9999 BKN006 OVC010 15/15 Q1014 TEMPO 2000 BKN004 OVC020 =
AMD LFCR 040717Z 0407/0506 14005KT 8000 RA FEW010 BKN040 TEMPO 0407/0410 2000 BKN004 OVC020 BECMG 0410/0412 27010KT 9999 NSW SCT006 SCT030TCU TEMPO 0412/0418 4000 SHRA SCT020 BKN030TCU BECMG 0418/0421 BKN013 BKN040 TEMPO 0500/0506 OVC004 LFBA 040800Z AUTO 26005KT 210V290 9999 OVC009 19/17 Q1014 BECMG BKN025 =
LFBA 040500Z 0406/0415 27005KT 9999 BKN012 OVC020 TEMPO 0406/0408 4000 -RA BKN005 BECMG 0408/0410 BKN025 TEMPO 0410/0415 27015G25KT 4000 SHRA BKN025TCU LFSL 040800Z AUTO VRB03KT 9999 BKN004 OVC011 16/16 Q1013 BECMG SCT025 =
LFSL 040500Z 0406/0415 VRB03KT 4000 RA BKN002 OVC010 BECMG 0407/0409 27010KT 9999 NSW BKN006 BKN025 BECMG 0409/0411 SCT025 TEMPO 0412/0415 -SHRA BKN030TCU
TAF
AMD LFCR 040717Z 0407/0506 14005KT 8000 RA FEW010 BKN040 TEMPO 0407/0410 2000 BKN004 OVC020 BECMG 0410/0412 27010KT 9999 NSW SCT006 SCT030TCU TEMPO 0412/0418 4000 SHRA SCT020 BKN030TCU BECMG 0418/0421 BKN013 BKN040 TEMPO 0500/0506 OVC004 =
LFBA 040500Z 0406/0415 27005KT 9999 BKN012 OVC020 TEMPO 0406/0408 4000 -RA BKN005 BECMG 0408/0410 BKN025 TEMPO 0410/0415 27015G25KT 4000 SHRA BKN025TCU =
LFSL 040500Z 0406/0415 VRB03KT 4000 RA BKN002 OVC010 BECMG 0407/0409 27010KT 9999 NSW BKN006 BKN025 BECMG 0409/0411 SCT025 TEMPO 0412/0415 -SHRA BKN030TCU =
SR / SS: 04:44 / 19:15 UTC (LFCC 2021-08-04)